sensor_id;sensor_type;location;lat;lon;timestamp;P1;durP1;ratioP1;P2;durP2;ratioP2
49392;SDS011;35268;42.642;23.308;2023-02-01T00:01:06;3.33;;;2.10;;
49392;SDS011;35268;42.642;23.308;2023-02-01T00:03:32;5.22;;;2.28;;
49392;SDS011;35268;42.642;23.308;2023-02-01T00:05:58;4.07;;;2.00;;
49392;SDS011;35268;42.642;23.308;2023-02-01T00:08:24;7.85;;;2.90;;
49392;SDS011;35268;42.642;23.308;2023-02-01T00:10:57;3.67;;;2.25;;
49392;SDS011;35268;42.642;23.308;2023-02-01T00:13:27;6.07;;;3.47;;
49392;SDS011;35268;42.642;23.308;2023-02-01T00:15:54;4.97;;;2.33;;
49392;SDS011;35268;42.642;23.308;2023-02-01T00:18:20;6.18;;;2.95;;
49392;SDS011;35268;42.642;23.308;2023-02-01T00:20:45;3.58;;;1.95;;
49392;SDS011;35268;42.642;23.308;2023-02-01T00:23:11;5.38;;;2.83;;
49392;SDS011;35268;42.642;23.308;2023-02-01T00:25:37;5.80;;;2.58;;
49392;SDS011;35268;42.642;23.308;2023-02-01T00:28:02;8.02;;;2.60;;
49392;SDS011;35268;42.642;23.308;2023-02-01T00:30:28;6.10;;;2.38;;
49392;SDS011;35268;42.642;23.308;2023-02-01T00:32:53;3.65;;;2.60;;
49392;SDS011;35268;42.642;23.308;2023-02-01T00:35:19;5.22;;;1.80;;
49392;SDS011;35268;42.642;23.308;2023-02-01T00:37:44;4.63;;;2.53;;
49392;SDS011;35268;42.642;23.308;2023-02-01T00:40:09;8.70;;;2.67;;
49392;SDS011;35268;42.642;23.308;2023-02-01T00:42:35;7.63;;;2.67;;
49392;SDS011;35268;42.642;23.308;2023-02-01T00:45:01;6.10;;;2.40;;
49392;SDS011;35268;42.642;23.308;2023-02-01T00:47:26;7.85;;;2.47;;
49392;SDS011;35268;42.642;23.308;2023-02-01T00:49:51;4.38;;;1.90;;
49392;SDS011;35268;42.642;23.308;2023-02-01T00:52:17;5.18;;;2.53;;
49392;SDS011;35268;42.642;23.308;2023-02-01T00:54:42;5.05;;;2.30;;
49392;SDS011;35268;42.642;23.308;2023-02-01T00:57:08;4.97;;;1.85;;
49392;SDS011;35268;42.642;23.308;2023-02-01T00:59:33;5.13;;;2.30;;
49392;SDS011;35268;42.642;23.308;2023-02-01T01:01:58;4.07;;;1.88;;
49392;SDS011;35268;42.642;23.308;2023-02-01T01:04:24;5.90;;;2.35;;
49392;SDS011;35268;42.642;23.308;2023-02-01T01:06:49;4.93;;;1.80;;
49392;SDS011;35268;42.642;23.308;2023-02-01T01:09:15;5.22;;;1.88;;
49392;SDS011;35268;42.642;23.308;2023-02-01T01:11:40;4.35;;;1.85;;
49392;SDS011;35268;42.642;23.308;2023-02-01T01:14:06;4.20;;;1.75;;
49392;SDS011;35268;42.642;23.308;2023-02-01T01:16:33;4.60;;;2.08;;
49392;SDS011;35268;42.642;23.308;2023-02-01T01:18:59;9.13;;;2.20;;
49392;SDS011;35268;42.642;23.308;2023-02-01T01:21:25;7.32;;;1.95;;
49392;SDS011;35268;42.642;23.308;2023-02-01T01:23:52;5.07;;;2.00;;
49392;SDS011;35268;42.642;23.308;2023-02-01T01:26:18;7.07;;;2.55;;
49392;SDS011;35268;42.642;23.308;2023-02-01T01:28:46;4.40;;;1.70;;
49392;SDS011;35268;42.642;23.308;2023-02-01T01:31:12;3.40;;;1.73;;
49392;SDS011;35268;42.642;23.308;2023-02-01T01:33:39;5.90;;;1.55;;
49392;SDS011;35268;42.642;23.308;2023-02-01T01:36:05;3.17;;;1.50;;
49392;SDS011;35268;42.642;23.308;2023-02-01T01:38:35;4.10;;;1.80;;
49392;SDS011;35268;42.642;23.308;2023-02-01T01:41:00;5.82;;;1.65;;
49392;SDS011;35268;42.642;23.308;2023-02-01T01:43:44;5.97;;;1.83;;
49392;SDS011;35268;42.642;23.308;2023-02-01T01:46:15;5.72;;;2.05;;
49392;SDS011;35268;42.642;23.308;2023-02-01T01:48:41;3.42;;;1.67;;
49392;SDS011;35268;42.642;23.308;2023-02-01T01:51:08;5.10;;;2.08;;
49392;SDS011;35268;42.642;23.308;2023-02-01T01:53:40;3.67;;;1.50;;
49392;SDS011;35268;42.642;23.308;2023-02-01T01:56:13;3.60;;;1.85;;
49392;SDS011;35268;42.642;23.308;2023-02-01T01:58:39;6.22;;;2.22;;
49392;SDS011;35268;42.642;23.308;2023-02-01T02:01:05;2.58;;;1.58;;
49392;SDS011;35268;42.642;23.308;2023-02-01T02:03:48;9.88;;;2.20;;
49392;SDS011;35268;42.642;23.308;2023-02-01T02:08:53;4.78;;;2.00;;
49392;SDS011;35268;42.642;23.308;2023-02-01T02:11:19;6.20;;;2.00;;
49392;SDS011;35268;42.642;23.308;2023-02-01T02:13:46;3.05;;;1.80;;
49392;SDS011;35268;42.642;23.308;2023-02-01T02:36:53;2.92;;;1.52;;
49392;SDS011;35268;42.642;23.308;2023-02-01T02:39:34;3.90;;;1.60;;
49392;SDS011;35268;42.642;23.308;2023-02-01T02:42:16;2.47;;;1.30;;
49392;SDS011;35268;42.642;23.308;2023-02-01T02:45:13;3.47;;;1.67;;
49392;SDS011;35268;42.642;23.308;2023-02-01T02:51:10;5.47;;;1.92;;
49392;SDS011;35268;42.642;23.308;2023-02-01T02:56:42;3.70;;;1.30;;
49392;SDS011;35268;42.642;23.308;2023-02-01T02:59:26;4.15;;;1.75;;
49392;SDS011;35268;42.642;23.308;2023-02-01T03:02:12;2.88;;;1.55;;
49392;SDS011;35268;42.642;23.308;2023-02-01T03:04:58;5.53;;;1.30;;
49392;SDS011;35268;42.642;23.308;2023-02-01T03:10:28;4.47;;;1.23;;
49392;SDS011;35268;42.642;23.308;2023-02-01T03:13:05;3.13;;;1.55;;
49392;SDS011;35268;42.642;23.308;2023-02-01T03:18:20;5.38;;;1.48;;
49392;SDS011;35268;42.642;23.308;2023-02-01T03:20:51;4.68;;;1.52;;
49392;SDS011;35268;42.642;23.308;2023-02-01T03:23:21;3.58;;;1.73;;
49392;SDS011;35268;42.642;23.308;2023-02-01T03:25:51;4.20;;;1.17;;
49392;SDS011;35268;42.642;23.308;2023-02-01T03:28:20;2.60;;;1.58;;
49392;SDS011;35268;42.642;23.308;2023-02-01T03:30:48;5.40;;;1.73;;
49392;SDS011;35268;42.642;23.308;2023-02-01T03:33:15;7.82;;;1.73;;
49392;SDS011;35268;42.642;23.308;2023-02-01T03:39:04;4.15;;;1.30;;
49392;SDS011;35268;42.642;23.308;2023-02-01T03:41:17;6.32;;;1.42;;
49392;SDS011;35268;42.642;23.308;2023-02-01T03:43:59;2.78;;;1.40;;
49392;SDS011;35268;42.642;23.308;2023-02-01T03:46:56;1.45;;;0.88;;
49392;SDS011;35268;42.642;23.308;2023-02-01T03:49:27;1.38;;;0.85;;
49392;SDS011;35268;42.642;23.308;2023-02-01T03:51:56;2.35;;;0.90;;
49392;SDS011;35268;42.642;23.308;2023-02-01T03:54:24;2.60;;;1.10;;
49392;SDS011;35268;42.642;23.308;2023-02-01T03:56:51;5.88;;;1.10;;
49392;SDS011;35268;42.642;23.308;2023-02-01T03:59:20;3.50;;;1.33;;
49392;SDS011;35268;42.642;23.308;2023-02-01T04:01:46;2.40;;;1.20;;
49392;SDS011;35268;42.642;23.308;2023-02-01T04:04:11;2.75;;;1.38;;
49392;SDS011;35268;42.642;23.308;2023-02-01T04:06:44;2.58;;;1.20;;
49392;SDS011;35268;42.642;23.308;2023-02-01T04:09:18;6.40;;;1.65;;
49392;SDS011;35268;42.642;23.308;2023-02-01T04:11:44;5.32;;;1.65;;
49392;SDS011;35268;42.642;23.308;2023-02-01T04:14:09;2.08;;;1.30;;
49392;SDS011;35268;42.642;23.308;2023-02-01T04:16:35;5.40;;;1.40;;
49392;SDS011;35268;42.642;23.308;2023-02-01T04:19:00;3.78;;;1.55;;
49392;SDS011;35268;42.642;23.308;2023-02-01T04:21:26;4.43;;;1.52;;
49392;SDS011;35268;42.642;23.308;2023-02-01T04:23:53;3.70;;;1.88;;
49392;SDS011;35268;42.642;23.308;2023-02-01T04:26:19;3.83;;;1.73;;
49392;SDS011;35268;42.642;23.308;2023-02-01T04:28:44;2.65;;;1.75;;
49392;SDS011;35268;42.642;23.308;2023-02-01T04:31:12;5.15;;;1.52;;
49392;SDS011;35268;42.642;23.308;2023-02-01T04:33:41;6.43;;;1.95;;
49392;SDS011;35268;42.642;23.308;2023-02-01T04:36:07;6.65;;;2.25;;
49392;SDS011;35268;42.642;23.308;2023-02-01T04:38:32;6.63;;;1.70;;
49392;SDS011;35268;42.642;23.308;2023-02-01T04:40:58;7.60;;;2.55;;
49392;SDS011;35268;42.642;23.308;2023-02-01T04:43:24;5.68;;;1.88;;
49392;SDS011;35268;42.642;23.308;2023-02-01T04:45:49;4.18;;;2.17;;
49392;SDS011;35268;42.642;23.308;2023-02-01T04:48:16;5.03;;;2.15;;
49392;SDS011;35268;42.642;23.308;2023-02-01T04:50:43;4.68;;;1.80;;
49392;SDS011;35268;42.642;23.308;2023-02-01T04:53:10;4.80;;;1.90;;
49392;SDS011;35268;42.642;23.308;2023-02-01T04:55:36;6.13;;;1.95;;
49392;SDS011;35268;42.642;23.308;2023-02-01T04:58:02;4.45;;;2.15;;
49392;SDS011;35268;42.642;23.308;2023-02-01T05:00:27;6.78;;;3.30;;
49392;SDS011;35268;42.642;23.308;2023-02-01T05:02:52;2.90;;;1.92;;
49392;SDS011;35268;42.642;23.308;2023-02-01T05:05:18;6.18;;;2.45;;
49392;SDS011;35268;42.642;23.308;2023-02-01T05:07:44;5.78;;;2.58;;
49392;SDS011;35268;42.642;23.308;2023-02-01T05:10:11;4.57;;;2.20;;
49392;SDS011;35268;42.642;23.308;2023-02-01T05:12:37;4.95;;;2.20;;
49392;SDS011;35268;42.642;23.308;2023-02-01T05:15:20;6.22;;;2.72;;
49392;SDS011;35268;42.642;23.308;2023-02-01T05:17:46;3.40;;;1.83;;
49392;SDS011;35268;42.642;23.308;2023-02-01T05:20:11;6.05;;;2.80;;
49392;SDS011;35268;42.642;23.308;2023-02-01T05:22:37;4.47;;;1.83;;
49392;SDS011;35268;42.642;23.308;2023-02-01T05:25:03;3.80;;;1.83;;
49392;SDS011;35268;42.642;23.308;2023-02-01T05:27:29;8.02;;;2.30;;
49392;SDS011;35268;42.642;23.308;2023-02-01T05:29:55;7.38;;;2.47;;
49392;SDS011;35268;42.642;23.308;2023-02-01T05:32:21;3.83;;;2.40;;
49392;SDS011;35268;42.642;23.308;2023-02-01T05:34:46;5.28;;;2.65;;
49392;SDS011;35268;42.642;23.308;2023-02-01T05:37:11;3.88;;;2.33;;
49392;SDS011;35268;42.642;23.308;2023-02-01T05:39:37;6.70;;;2.67;;
49392;SDS011;35268;42.642;23.308;2023-02-01T05:42:02;7.47;;;2.03;;
49392;SDS011;35268;42.642;23.308;2023-02-01T05:44:28;9.55;;;2.63;;
49392;SDS011;35268;42.642;23.308;2023-02-01T05:46:53;6.95;;;2.35;;
49392;SDS011;35268;42.642;23.308;2023-02-01T05:49:18;5.65;;;2.22;;
49392;SDS011;35268;42.642;23.308;2023-02-01T05:51:44;7.57;;;1.60;;
49392;SDS011;35268;42.642;23.308;2023-02-01T05:54:09;3.17;;;1.50;;
49392;SDS011;35268;42.642;23.308;2023-02-01T05:56:35;6.63;;;1.95;;
49392;SDS011;35268;42.642;23.308;2023-02-01T05:59:01;6.72;;;2.25;;
49392;SDS011;35268;42.642;23.308;2023-02-01T06:01:26;3.83;;;1.60;;
49392;SDS011;35268;42.642;23.308;2023-02-01T06:03:51;4.47;;;1.55;;
49392;SDS011;35268;42.642;23.308;2023-02-01T06:06:17;3.42;;;1.70;;
49392;SDS011;35268;42.642;23.308;2023-02-01T06:08:43;5.00;;;1.55;;
49392;SDS011;35268;42.642;23.308;2023-02-01T06:11:09;4.65;;;1.63;;
49392;SDS011;35268;42.642;23.308;2023-02-01T06:13:34;4.57;;;1.85;;
49392;SDS011;35268;42.642;23.308;2023-02-01T06:16:00;5.00;;;2.03;;
49392;SDS011;35268;42.642;23.308;2023-02-01T06:18:27;3.58;;;1.58;;
49392;SDS011;35268;42.642;23.308;2023-02-01T06:20:56;6.25;;;1.70;;
49392;SDS011;35268;42.642;23.308;2023-02-01T06:23:25;3.28;;;1.25;;
49392;SDS011;35268;42.642;23.308;2023-02-01T06:25:51;5.30;;;2.00;;
49392;SDS011;35268;42.642;23.308;2023-02-01T06:28:17;7.32;;;1.58;;
49392;SDS011;35268;42.642;23.308;2023-02-01T06:30:42;3.30;;;1.30;;
49392;SDS011;35268;42.642;23.308;2023-02-01T06:33:11;12.75;;;1.80;;
49392;SDS011;35268;42.642;23.308;2023-02-01T06:35:40;4.38;;;1.63;;
49392;SDS011;35268;42.642;23.308;2023-02-01T06:38:07;2.38;;;1.08;;
49392;SDS011;35268;42.642;23.308;2023-02-01T06:40:32;1.40;;;0.90;;
49392;SDS011;35268;42.642;23.308;2023-02-01T06:42:58;3.33;;;1.20;;
49392;SDS011;35268;42.642;23.308;2023-02-01T06:45:23;7.70;;;2.00;;
49392;SDS011;35268;42.642;23.308;2023-02-01T06:47:49;6.18;;;1.83;;
49392;SDS011;35268;42.642;23.308;2023-02-01T06:50:14;3.28;;;1.55;;
49392;SDS011;35268;42.642;23.308;2023-02-01T06:52:40;4.57;;;1.10;;
49392;SDS011;35268;42.642;23.308;2023-02-01T06:55:05;4.00;;;1.20;;
49392;SDS011;35268;42.642;23.308;2023-02-01T06:57:31;3.50;;;1.65;;
49392;SDS011;35268;42.642;23.308;2023-02-01T06:59:59;3.40;;;1.30;;
49392;SDS011;35268;42.642;23.308;2023-02-01T07:02:24;3.50;;;1.10;;
49392;SDS011;35268;42.642;23.308;2023-02-01T07:04:50;2.42;;;1.52;;
49392;SDS011;35268;42.642;23.308;2023-02-01T07:07:15;7.07;;;1.55;;
49392;SDS011;35268;42.642;23.308;2023-02-01T07:09:41;6.88;;;1.50;;
49392;SDS011;35268;42.642;23.308;2023-02-01T07:12:07;4.88;;;1.63;;
49392;SDS011;35268;42.642;23.308;2023-02-01T07:14:32;2.58;;;1.27;;
49392;SDS011;35268;42.642;23.308;2023-02-01T07:16:58;2.72;;;1.08;;
49392;SDS011;35268;42.642;23.308;2023-02-01T07:19:23;5.80;;;1.33;;
49392;SDS011;35268;42.642;23.308;2023-02-01T07:21:48;2.33;;;0.90;;
49392;SDS011;35268;42.642;23.308;2023-02-01T07:24:14;4.65;;;2.00;;
49392;SDS011;35268;42.642;23.308;2023-02-01T07:26:39;5.47;;;1.33;;
49392;SDS011;35268;42.642;23.308;2023-02-01T07:29:05;3.22;;;1.02;;
49392;SDS011;35268;42.642;23.308;2023-02-01T07:31:30;7.85;;;1.42;;
49392;SDS011;35268;42.642;23.308;2023-02-01T07:33:56;3.90;;;1.20;;
49392;SDS011;35268;42.642;23.308;2023-02-01T07:36:23;6.82;;;1.20;;
49392;SDS011;35268;42.642;23.308;2023-02-01T07:38:49;3.50;;;1.20;;
49392;SDS011;35268;42.642;23.308;2023-02-01T07:41:16;9.88;;;1.90;;
49392;SDS011;35268;42.642;23.308;2023-02-01T07:43:42;5.43;;;1.25;;
49392;SDS011;35268;42.642;23.308;2023-02-01T07:46:08;2.42;;;1.15;;
49392;SDS011;35268;42.642;23.308;2023-02-01T07:48:35;3.30;;;1.27;;
49392;SDS011;35268;42.642;23.308;2023-02-01T07:51:01;4.53;;;1.35;;
49392;SDS011;35268;42.642;23.308;2023-02-01T07:53:28;2.53;;;0.98;;
49392;SDS011;35268;42.642;23.308;2023-02-01T07:55:55;3.33;;;0.90;;
49392;SDS011;35268;42.642;23.308;2023-02-01T07:58:21;1.98;;;1.05;;
49392;SDS011;35268;42.642;23.308;2023-02-01T08:00:47;6.65;;;1.65;;
49392;SDS011;35268;42.642;23.308;2023-02-01T08:03:31;3.78;;;1.42;;
49392;SDS011;35268;42.642;23.308;2023-02-01T08:05:56;5.03;;;1.17;;
49392;SDS011;35268;42.642;23.308;2023-02-01T08:08:22;1.77;;;0.88;;
49392;SDS011;35268;42.642;23.308;2023-02-01T08:10:48;3.05;;;0.85;;
49392;SDS011;35268;42.642;23.308;2023-02-01T08:13:14;4.47;;;1.00;;
49392;SDS011;35268;42.642;23.308;2023-02-01T08:15:40;3.70;;;1.10;;
49392;SDS011;35268;42.642;23.308;2023-02-01T08:18:05;12.38;;;1.02;;
49392;SDS011;35268;42.642;23.308;2023-02-01T08:20:31;3.65;;;1.42;;
49392;SDS011;35268;42.642;23.308;2023-02-01T08:22:59;2.58;;;1.10;;
49392;SDS011;35268;42.642;23.308;2023-02-01T08:25:24;2.78;;;1.25;;
49392;SDS011;35268;42.642;23.308;2023-02-01T08:27:50;2.22;;;1.38;;
49392;SDS011;35268;42.642;23.308;2023-02-01T08:30:16;8.98;;;1.70;;
49392;SDS011;35268;42.642;23.308;2023-02-01T08:32:42;1.88;;;0.93;;
49392;SDS011;35268;42.642;23.308;2023-02-01T08:35:07;7.75;;;1.35;;
49392;SDS011;35268;42.642;23.308;2023-02-01T08:37:33;7.07;;;1.10;;
49392;SDS011;35268;42.642;23.308;2023-02-01T08:39:58;5.40;;;2.40;;
49392;SDS011;35268;42.642;23.308;2023-02-01T08:42:24;5.18;;;1.50;;
49392;SDS011;35268;42.642;23.308;2023-02-01T08:45:08;6.97;;;1.30;;
49392;SDS011;35268;42.642;23.308;2023-02-01T08:47:34;3.97;;;1.75;;
49392;SDS011;35268;42.642;23.308;2023-02-01T08:50:00;5.78;;;1.83;;
49392;SDS011;35268;42.642;23.308;2023-02-01T08:52:25;3.60;;;1.35;;
49392;SDS011;35268;42.642;23.308;2023-02-01T08:54:51;5.07;;;1.80;;
49392;SDS011;35268;42.642;23.308;2023-02-01T08:57:16;3.75;;;1.10;;
49392;SDS011;35268;42.642;23.308;2023-02-01T08:59:42;5.78;;;1.52;;
49392;SDS011;35268;42.642;23.308;2023-02-01T09:02:12;4.68;;;1.67;;
49392;SDS011;35268;42.642;23.308;2023-02-01T09:04:39;3.17;;;1.23;;
49392;SDS011;35268;42.642;23.308;2023-02-01T09:07:06;4.70;;;1.52;;
49392;SDS011;35268;42.642;23.308;2023-02-01T09:09:32;4.22;;;1.10;;
49392;SDS011;35268;42.642;23.308;2023-02-01T09:11:57;4.20;;;1.10;;
49392;SDS011;35268;42.642;23.308;2023-02-01T09:14:22;11.38;;;1.13;;
49392;SDS011;35268;42.642;23.308;2023-02-01T09:16:48;4.10;;;1.05;;
49392;SDS011;35268;42.642;23.308;2023-02-01T09:19:14;5.70;;;1.25;;
49392;SDS011;35268;42.642;23.308;2023-02-01T09:21:39;3.17;;;1.20;;
49392;SDS011;35268;42.642;23.308;2023-02-01T09:24:05;2.88;;;1.10;;
49392;SDS011;35268;42.642;23.308;2023-02-01T09:26:31;4.78;;;1.35;;
49392;SDS011;35268;42.642;23.308;2023-02-01T09:28:57;6.22;;;1.25;;
49392;SDS011;35268;42.642;23.308;2023-02-01T09:31:23;4.80;;;1.40;;
49392;SDS011;35268;42.642;23.308;2023-02-01T09:33:48;5.05;;;1.38;;
49392;SDS011;35268;42.642;23.308;2023-02-01T09:36:14;6.30;;;1.63;;
49392;SDS011;35268;42.642;23.308;2023-02-01T09:38:39;4.13;;;1.27;;
49392;SDS011;35268;42.642;23.308;2023-02-01T09:41:15;7.47;;;1.83;;
49392;SDS011;35268;42.642;23.308;2023-02-01T09:44:06;3.50;;;1.42;;
49392;SDS011;35268;42.642;23.308;2023-02-01T09:46:41;4.97;;;1.40;;
49392;SDS011;35268;42.642;23.308;2023-02-01T09:49:15;3.88;;;1.15;;
49392;SDS011;35268;42.642;23.308;2023-02-01T09:51:46;3.33;;;1.52;;
49392;SDS011;35268;42.642;23.308;2023-02-01T09:54:15;4.63;;;1.27;;
49392;SDS011;35268;42.642;23.308;2023-02-01T10:02:16;7.93;;;1.55;;
49392;SDS011;35268;42.642;23.308;2023-02-01T10:04:43;3.83;;;1.60;;
49392;SDS011;35268;42.642;23.308;2023-02-01T10:07:19;3.45;;;0.88;;
49392;SDS011;35268;42.642;23.308;2023-02-01T10:10:04;3.45;;;1.20;;
49392;SDS011;35268;42.642;23.308;2023-02-01T10:23:47;3.38;;;1.30;;
49392;SDS011;35268;42.642;23.308;2023-02-01T10:26:21;10.65;;;1.50;;
49392;SDS011;35268;42.642;23.308;2023-02-01T10:28:52;2.45;;;1.23;;
49392;SDS011;35268;42.642;23.308;2023-02-01T10:31:22;4.03;;;1.50;;
49392;SDS011;35268;42.642;23.308;2023-02-01T10:33:57;6.13;;;1.60;;
49392;SDS011;35268;42.642;23.308;2023-02-01T10:39:00;5.25;;;0.90;;
49392;SDS011;35268;42.642;23.308;2023-02-01T10:41:36;3.67;;;1.52;;
49392;SDS011;35268;42.642;23.308;2023-02-01T10:44:05;2.08;;;1.15;;
49392;SDS011;35268;42.642;23.308;2023-02-01T10:46:36;8.23;;;1.20;;
49392;SDS011;35268;42.642;23.308;2023-02-01T10:49:02;4.68;;;1.45;;
49392;SDS011;35268;42.642;23.308;2023-02-01T10:54:32;8.13;;;1.33;;
49392;SDS011;35268;42.642;23.308;2023-02-01T10:57:03;2.22;;;1.20;;
49392;SDS011;35268;42.642;23.308;2023-02-01T10:59:35;2.17;;;0.90;;
49392;SDS011;35268;42.642;23.308;2023-02-01T11:02:46;2.45;;;1.10;;
49392;SDS011;35268;42.642;23.308;2023-02-01T11:05:04;3.35;;;1.10;;
49392;SDS011;35268;42.642;23.308;2023-02-01T11:07:34;7.28;;;1.23;;
49392;SDS011;35268;42.642;23.308;2023-02-01T11:10:01;7.85;;;1.15;;
49392;SDS011;35268;42.642;23.308;2023-02-01T11:15:00;5.60;;;1.15;;
49392;SDS011;35268;42.642;23.308;2023-02-01T11:17:39;3.58;;;1.40;;
49392;SDS011;35268;42.642;23.308;2023-02-01T11:20:13;2.83;;;1.20;;
49392;SDS011;35268;42.642;23.308;2023-02-01T11:22:58;2.38;;;1.30;;
49392;SDS011;35268;42.642;23.308;2023-02-01T11:25:24;4.13;;;1.35;;
49392;SDS011;35268;42.642;23.308;2023-02-01T11:27:51;3.72;;;1.15;;
49392;SDS011;35268;42.642;23.308;2023-02-01T11:30:22;3.13;;;0.88;;
49392;SDS011;35268;42.642;23.308;2023-02-01T11:32:56;5.00;;;0.88;;
49392;SDS011;35268;42.642;23.308;2023-02-01T11:35:24;2.38;;;0.70;;
49392;SDS011;35268;42.642;23.308;2023-02-01T11:37:54;1.77;;;0.82;;
49392;SDS011;35268;42.642;23.308;2023-02-01T11:43:13;1.48;;;0.77;;
49392;SDS011;35268;42.642;23.308;2023-02-01T11:45:39;1.00;;;0.60;;
49392;SDS011;35268;42.642;23.308;2023-02-01T11:48:08;1.65;;;0.77;;
49392;SDS011;35268;42.642;23.308;2023-02-01T11:50:44;2.22;;;0.90;;
49392;SDS011;35268;42.642;23.308;2023-02-01T11:56:16;0.47;;;0.43;;
49392;SDS011;35268;42.642;23.308;2023-02-01T12:01:47;4.88;;;1.20;;
49392;SDS011;35268;42.642;23.308;2023-02-01T12:09:42;3.03;;;1.23;;
49392;SDS011;35268;42.642;23.308;2023-02-01T12:12:46;2.50;;;1.15;;
49392;SDS011;35268;42.642;23.308;2023-02-01T12:23:49;2.58;;;1.13;;
49392;SDS011;35268;42.642;23.308;2023-02-01T12:35:00;2.90;;;1.00;;
49392;SDS011;35268;42.642;23.308;2023-02-01T12:43:02;2.83;;;1.00;;
49392;SDS011;35268;42.642;23.308;2023-02-01T12:45:49;5.63;;;1.40;;
49392;SDS011;35268;42.642;23.308;2023-02-01T12:48:31;4.65;;;0.95;;
49392;SDS011;35268;42.642;23.308;2023-02-01T12:51:02;1.25;;;0.70;;
49392;SDS011;35268;42.642;23.308;2023-02-01T12:56:19;2.47;;;1.15;;
49392;SDS011;35268;42.642;23.308;2023-02-01T12:58:53;2.08;;;0.98;;
49392;SDS011;35268;42.642;23.308;2023-02-01T13:01:26;3.90;;;1.30;;
49392;SDS011;35268;42.642;23.308;2023-02-01T13:09:36;2.10;;;1.00;;
49392;SDS011;35268;42.642;23.308;2023-02-01T13:12:56;3.35;;;1.08;;
49392;SDS011;35268;42.642;23.308;2023-02-01T13:14:56;5.13;;;1.15;;
49392;SDS011;35268;42.642;23.308;2023-02-01T13:17:41;1.85;;;0.90;;
49392;SDS011;35268;42.642;23.308;2023-02-01T13:20:19;1.95;;;1.05;;
49392;SDS011;35268;42.642;23.308;2023-02-01T13:22:59;2.55;;;1.23;;
49392;SDS011;35268;42.642;23.308;2023-02-01T13:25:35;1.80;;;1.00;;
49392;SDS011;35268;42.642;23.308;2023-02-01T13:28:12;3.63;;;1.38;;
49392;SDS011;35268;42.642;23.308;2023-02-01T13:30:54;5.78;;;0.93;;
49392;SDS011;35268;42.642;23.308;2023-02-01T13:33:33;2.08;;;1.08;;
49392;SDS011;35268;42.642;23.308;2023-02-01T13:44:27;4.87;;;1.30;;
49392;SDS011;35268;42.642;23.308;2023-02-01T13:47:02;5.10;;;1.30;;
49392;SDS011;35268;42.642;23.308;2023-02-01T13:49:39;4.60;;;1.02;;
49392;SDS011;35268;42.642;23.308;2023-02-01T13:52:06;2.05;;;0.95;;
49392;SDS011;35268;42.642;23.308;2023-02-01T13:54:48;3.67;;;1.33;;
49392;SDS011;35268;42.642;23.308;2023-02-01T13:57:34;2.72;;;0.77;;
49392;SDS011;35268;42.642;23.308;2023-02-01T14:00:22;1.65;;;1.00;;
49392;SDS011;35268;42.642;23.308;2023-02-01T14:13:34;6.93;;;1.48;;
49392;SDS011;35268;42.642;23.308;2023-02-01T14:26:19;3.45;;;1.25;;
49392;SDS011;35268;42.642;23.308;2023-02-01T14:36:43;2.05;;;0.95;;
49392;SDS011;35268;42.642;23.308;2023-02-01T14:42:20;3.85;;;1.00;;
49392;SDS011;35268;42.642;23.308;2023-02-01T14:52:33;2.60;;;1.27;;
49392;SDS011;35268;42.642;23.308;2023-02-01T14:55:05;5.32;;;1.10;;
49392;SDS011;35268;42.642;23.308;2023-02-01T14:57:36;1.60;;;0.82;;
49392;SDS011;35268;42.642;23.308;2023-02-01T15:00:25;2.28;;;0.90;;
49392;SDS011;35268;42.642;23.308;2023-02-01T15:02:54;9.77;;;1.52;;
49392;SDS011;35268;42.642;23.308;2023-02-01T15:05:31;8.55;;;1.95;;
49392;SDS011;35268;42.642;23.308;2023-02-01T15:08:00;3.90;;;1.63;;
49392;SDS011;35268;42.642;23.308;2023-02-01T15:10:43;4.13;;;1.63;;
49392;SDS011;35268;42.642;23.308;2023-02-01T15:13:23;3.08;;;1.50;;
49392;SDS011;35268;42.642;23.308;2023-02-01T15:16:04;1.80;;;1.08;;
49392;SDS011;35268;42.642;23.308;2023-02-01T15:18:29;2.72;;;0.90;;
49392;SDS011;35268;42.642;23.308;2023-02-01T15:20:58;2.38;;;0.70;;
49392;SDS011;35268;42.642;23.308;2023-02-01T15:23:25;3.00;;;0.95;;
49392;SDS011;35268;42.642;23.308;2023-02-01T15:25:50;5.10;;;1.10;;
49392;SDS011;35268;42.642;23.308;2023-02-01T15:28:16;2.13;;;1.10;;
49392;SDS011;35268;42.642;23.308;2023-02-01T15:33:37;1.42;;;0.70;;
49392;SDS011;35268;42.642;23.308;2023-02-01T15:38:38;2.47;;;1.00;;
49392;SDS011;35268;42.642;23.308;2023-02-01T15:41:15;1.80;;;0.90;;
49392;SDS011;35268;42.642;23.308;2023-02-01T15:46:12;2.33;;;1.00;;
49392;SDS011;35268;42.642;23.308;2023-02-01T15:51:14;1.75;;;1.00;;
49392;SDS011;35268;42.642;23.308;2023-02-01T15:53:48;2.75;;;0.80;;
49392;SDS011;35268;42.642;23.308;2023-02-01T15:56:20;1.75;;;1.25;;
49392;SDS011;35268;42.642;23.308;2023-02-01T15:58:49;1.38;;;0.70;;
49392;SDS011;35268;42.642;23.308;2023-02-01T16:01:17;1.67;;;0.88;;
49392;SDS011;35268;42.642;23.308;2023-02-01T16:03:45;1.75;;;0.93;;
49392;SDS011;35268;42.642;23.308;2023-02-01T16:08:55;2.85;;;1.15;;
49392;SDS011;35268;42.642;23.308;2023-02-01T16:12:19;3.78;;;1.25;;
49392;SDS011;35268;42.642;23.308;2023-02-01T16:14:28;4.32;;;1.25;;
49392;SDS011;35268;42.642;23.308;2023-02-01T16:16:56;3.85;;;1.25;;
49392;SDS011;35268;42.642;23.308;2023-02-01T16:19:23;2.00;;;0.98;;
49392;SDS011;35268;42.642;23.308;2023-02-01T16:21:53;2.50;;;1.13;;
49392;SDS011;35268;42.642;23.308;2023-02-01T16:24:19;2.47;;;1.13;;
49392;SDS011;35268;42.642;23.308;2023-02-01T16:26:47;2.97;;;1.30;;
49392;SDS011;35268;42.642;23.308;2023-02-01T16:29:12;3.08;;;1.10;;
49392;SDS011;35268;42.642;23.308;2023-02-01T16:31:38;3.88;;;1.30;;
49392;SDS011;35268;42.642;23.308;2023-02-01T16:34:05;5.13;;;1.30;;
49392;SDS011;35268;42.642;23.308;2023-02-01T16:36:31;4.30;;;1.40;;
49392;SDS011;35268;42.642;23.308;2023-02-01T16:38:58;2.00;;;1.02;;
49392;SDS011;35268;42.642;23.308;2023-02-01T16:41:24;3.38;;;1.30;;
49392;SDS011;35268;42.642;23.308;2023-02-01T16:43:51;2.33;;;1.13;;
49392;SDS011;35268;42.642;23.308;2023-02-01T16:46:23;2.10;;;0.85;;
49392;SDS011;35268;42.642;23.308;2023-02-01T16:48:59;2.58;;;0.80;;
49392;SDS011;35268;42.642;23.308;2023-02-01T16:51:28;2.38;;;1.05;;
49392;SDS011;35268;42.642;23.308;2023-02-01T16:53:57;5.07;;;1.45;;
49392;SDS011;35268;42.642;23.308;2023-02-01T16:56:28;2.10;;;0.90;;
49392;SDS011;35268;42.642;23.308;2023-02-01T16:58:55;2.00;;;1.10;;
49392;SDS011;35268;42.642;23.308;2023-02-01T17:01:21;3.03;;;1.10;;
49392;SDS011;35268;42.642;23.308;2023-02-01T17:03:47;2.40;;;1.10;;
49392;SDS011;35268;42.642;23.308;2023-02-01T17:06:16;1.27;;;0.77;;
49392;SDS011;35268;42.642;23.308;2023-02-01T17:08:46;1.80;;;0.85;;
49392;SDS011;35268;42.642;23.308;2023-02-01T17:11:15;2.40;;;1.10;;
49392;SDS011;35268;42.642;23.308;2023-02-01T17:13:40;2.70;;;1.08;;
49392;SDS011;35268;42.642;23.308;2023-02-01T17:16:24;1.60;;;0.82;;
49392;SDS011;35268;42.642;23.308;2023-02-01T17:19:03;5.53;;;1.10;;
49392;SDS011;35268;42.642;23.308;2023-02-01T17:21:35;2.28;;;0.95;;
49392;SDS011;35268;42.642;23.308;2023-02-01T17:24:05;3.33;;;1.27;;
49392;SDS011;35268;42.642;23.308;2023-02-01T17:26:31;1.15;;;0.80;;
49392;SDS011;35268;42.642;23.308;2023-02-01T17:28:57;1.75;;;0.98;;
49392;SDS011;35268;42.642;23.308;2023-02-01T17:31:23;1.60;;;0.90;;
49392;SDS011;35268;42.642;23.308;2023-02-01T17:33:48;4.80;;;1.10;;
49392;SDS011;35268;42.642;23.308;2023-02-01T17:36:15;4.75;;;1.00;;